Cloudcroft, New Mexico
Current Conditions -  °F | °C
As of 8:58 PM on Saturday 25 Oct 2014 (Local Time) from KHMN Reporting Station
Clear Clear  
Wind Chill: 66°   Ceiling: Unl
Heat Index: 66°   Visibility: 10mi
Dew Point: 43°   Wind: 7mph
Humidity: 43%   Direction: 110°ESE
Pressure: 30.13"   Gusts: NA
Location:  32.96°N, 105.74°W
Report Text: KHMN 260258Z AUTO 11006KT 10SM CLR 19/06 A3013 RMK AO2 SLP154 T01890061 53001 $
Loading
Personal Weather Stations






























Interactive Weather Map
Tropical Storm Tracking
New forecast layout! Learn more

10-Day Weather Forecast

Advertisements
Track Severe Weather on mobile